createdAt,value
2019-03-01T00:00:10.562Z,85.93
2019-03-01T00:01:10.554Z,86.13
2019-03-01T00:02:10.574Z,86.13
2019-03-01T00:03:10.533Z,87.10
2019-03-01T00:04:10.617Z,86.89
2019-03-01T00:05:10.504Z,86.62
2019-03-01T00:06:10.501Z,86.93
2019-03-01T00:07:10.516Z,86.93
2019-03-01T00:08:10.485Z,88.92
2019-03-01T00:09:10.555Z,89.64
2019-03-01T00:10:10.450Z,90.20
2019-03-01T00:11:10.437Z,91.27
2019-03-01T00:12:10.438Z,92.05
2019-03-01T00:13:12.517Z,92.57
2019-03-01T00:14:10.404Z,93.18
2019-03-01T00:15:10.465Z,92.97
2019-03-01T00:16:10.382Z,92.46
2019-03-01T00:17:10.390Z,92.77
2019-03-01T00:18:10.370Z,91.68
2019-03-01T00:19:10.452Z,92.16
2019-03-01T00:20:10.340Z,92.16
2019-03-01T00:21:10.382Z,91.74
2019-03-01T00:22:10.341Z,91.74
2019-03-01T00:23:10.322Z,91.64
2019-03-01T00:24:10.384Z,91.33
2019-03-01T00:25:10.283Z,91.23
2019-03-01T00:26:10.314Z,90.20
2019-03-01T00:27:10.285Z,90.72
2019-03-01T00:28:10.265Z,90.24
2019-03-01T00:29:10.315Z,90.45
2019-03-01T00:30:10.228Z,90.61
2019-03-01T00:31:10.257Z,90.09
2019-03-01T00:32:10.216Z,90.41
2019-03-01T00:33:10.215Z,90.55
2019-03-01T00:34:10.257Z,90.51
2019-03-01T00:35:10.167Z,90.45
2019-03-01T00:36:11.209Z,90.75
2019-03-01T00:37:10.135Z,90.24
2019-03-01T00:38:10.179Z,90.34
2019-03-01T00:39:10.110Z,90.24
2019-03-01T00:40:10.159Z,90.34
2019-03-01T00:41:10.090Z,90.34
2019-03-01T00:42:11.121Z,91.62
2019-03-01T00:43:10.080Z,91.11
2019-03-01T00:44:10.131Z,90.90
2019-03-01T00:45:10.045Z,90.39
2019-03-01T00:46:10.072Z,90.28
2019-03-01T00:47:10.033Z,90.59
2019-03-01T00:48:10.014Z,91.00
2019-03-01T00:49:10.118Z,91.42
2019-03-01T00:50:09.984Z,91.42
2019-03-01T00:51:10.007Z,91.62
2019-03-01T00:52:09.966Z,91.42
2019-03-01T00:53:09.955Z,91.72
2019-03-01T00:54:09.956Z,91.72
2019-03-01T00:55:09.976Z,91.31
2019-03-01T00:56:09.917Z,90.90
2019-03-01T00:57:10.018Z,90.59
2019-03-01T00:58:09.897Z,90.69
2019-03-01T00:59:09.989Z,90.49
2019-03-01T01:00:09.880Z,90.59
2019-03-01T01:01:09.878Z,91.00
2019-03-01T01:02:09.850Z,91.52
2019-03-01T01:03:09.922Z,88.39
2019-03-01T01:04:09.840Z,88.90
2019-03-01T01:05:09.851Z,89.62
2019-03-01T01:06:09.822Z,89.77
2019-03-01T01:07:09.892Z,89.62
2019-03-01T01:08:09.794Z,87.57
2019-03-01T01:09:09.783Z,87.12
2019-03-01T01:10:09.774Z,85.36
2019-03-01T01:11:10.794Z,82.76
2019-03-01T01:12:09.745Z,84.05
2019-03-01T01:13:09.804Z,84.05
2019-03-01T01:14:09.830Z,85.39
2019-03-01T01:15:09.715Z,85.33
2019-03-01T01:16:09.815Z,86.05
2019-03-01T01:17:09.686Z,86.35
2019-03-01T01:18:09.746Z,85.84
2019-03-01T01:19:09.677Z,86.25
2019-03-01T01:20:09.650Z,87.49
2019-03-01T01:21:09.749Z,87.07
2019-03-01T01:22:09.638Z,87.69
2019-03-01T01:23:10.710Z,87.49
2019-03-01T01:24:09.629Z,87.69
2019-03-01T01:25:09.601Z,87.59
2019-03-01T01:26:09.694Z,88.10
2019-03-01T01:27:09.582Z,87.90
2019-03-01T01:28:09.623Z,88.41
2019-03-01T01:29:09.565Z,88.96
2019-03-01T01:30:09.543Z,88.96
2019-03-01T01:31:09.535Z,89.17
2019-03-01T01:32:09.613Z,89.28
2019-03-01T01:33:09.507Z,89.58
2019-03-01T01:34:09.575Z,90.00
2019-03-01T01:35:09.474Z,90.09
2019-03-01T01:36:10.484Z,88.45
2019-03-01T01:37:09.454Z,88.45
2019-03-01T01:38:09.507Z,89.01
2019-03-01T01:39:09.452Z,89.01
2019-03-01T01:40:09.437Z,88.39
2019-03-01T01:41:09.407Z,88.76
2019-03-01T01:42:09.477Z,89.31
2019-03-01T01:43:09.387Z,89.62
2019-03-01T01:44:09.448Z,90.34
2019-03-01T01:45:09.385Z,89.94
2019-03-01T01:46:09.351Z,90.03
2019-03-01T01:47:09.340Z,90.30
2019-03-01T01:48:09.381Z,90.24
2019-03-01T01:49:09.355Z,90.66
2019-03-01T01:50:10.341Z,90.75
2019-03-01T01:51:09.292Z,90.45
2019-03-01T01:52:09.354Z,90.45
2019-03-01T01:53:09.298Z,90.45
2019-03-01T01:54:09.336Z,90.45
2019-03-01T01:55:09.243Z,90.24
2019-03-01T01:56:09.323Z,90.24
2019-03-01T01:57:09.224Z,90.24
2019-03-01T01:58:09.259Z,91.58
2019-03-01T01:59:09.226Z,91.68
2019-03-01T02:00:09.306Z,91.38
2019-03-01T02:01:09.185Z,91.58
2019-03-01T02:02:09.179Z,91.62
2019-03-01T02:03:09.167Z,92.03
2019-03-01T02:04:09.217Z,91.62
2019-03-01T02:05:09.148Z,91.93
2019-03-01T02:06:09.219Z,91.83
2019-03-01T02:07:09.119Z,91.83
2019-03-01T02:08:10.170Z,91.93
2019-03-01T02:09:09.110Z,91.68
2019-03-01T02:10:09.181Z,91.83
2019-03-01T02:11:09.082Z,91.68
2019-03-01T02:12:09.123Z,91.72
2019-03-01T02:13:09.051Z,91.62
2019-03-01T02:14:09.104Z,91.62
2019-03-01T02:15:09.022Z,91.52
2019-03-01T02:16:09.083Z,91.72
2019-03-01T02:17:09.003Z,91.52
2019-03-01T02:18:08.974Z,91.42
2019-03-01T02:19:10.066Z,91.62
2019-03-01T02:20:08.975Z,91.83
2019-03-01T02:21:09.025Z,91.72
2019-03-01T02:22:08.956Z,91.66
2019-03-01T02:23:08.926Z,91.72
2019-03-01T02:24:08.936Z,91.52
2019-03-01T02:25:08.996Z,92.03
2019-03-01T02:26:08.899Z,92.14
2019-03-01T02:27:08.937Z,91.97
2019-03-01T02:28:08.869Z,92.38
2019-03-01T02:29:08.901Z,91.72
2019-03-01T02:30:08.938Z,92.24
2019-03-01T02:31:08.850Z,92.03
2019-03-01T02:32:08.870Z,91.93
2019-03-01T02:33:08.821Z,92.69
2019-03-01T02:34:08.832Z,92.80
2019-03-01T02:35:08.799Z,92.69
2019-03-01T02:36:08.844Z,92.80
2019-03-01T02:37:08.790Z,92.65
2019-03-01T02:38:08.803Z,92.90
2019-03-01T02:39:08.767Z,92.59
2019-03-01T02:40:08.813Z,92.59
2019-03-01T02:41:08.724Z,92.59
2019-03-01T02:42:08.759Z,92.59
2019-03-01T02:43:08.705Z,93.21
2019-03-01T02:44:08.726Z,93.93
2019-03-01T02:45:08.676Z,93.27
2019-03-01T02:46:08.737Z,93.16
2019-03-01T02:47:08.657Z,93.48
2019-03-01T02:48:08.770Z,93.06
2019-03-01T02:49:08.679Z,92.76
2019-03-01T02:50:08.630Z,93.06
2019-03-01T02:51:08.684Z,92.96
2019-03-01T02:52:08.645Z,92.44
2019-03-01T02:53:08.589Z,93.27
2019-03-01T02:54:08.680Z,92.34
2019-03-01T02:55:08.592Z,92.44
2019-03-01T02:56:08.611Z,93.06
2019-03-01T02:57:08.556Z,92.86
2019-03-01T02:58:08.656Z,92.34
2019-03-01T02:59:08.532Z,92.65
2019-03-01T03:00:08.632Z,92.24
2019-03-01T03:01:08.503Z,93.27
2019-03-01T03:02:09.547Z,93.21
2019-03-01T03:03:08.488Z,93.11
2019-03-01T03:04:08.554Z,94.03
2019-03-01T03:05:08.483Z,93.83
2019-03-01T03:06:08.448Z,93.68
2019-03-01T03:07:08.436Z,93.52
2019-03-01T03:08:08.531Z,94.13
2019-03-01T03:09:08.417Z,93.88
2019-03-01T03:10:08.508Z,93.99
2019-03-01T03:11:08.391Z,93.16
2019-03-01T03:12:09.418Z,92.86
2019-03-01T03:13:08.364Z,92.76
2019-03-01T03:14:08.429Z,92.40
2019-03-01T03:15:08.382Z,92.61
2019-03-01T03:16:08.362Z,93.12
2019-03-01T03:17:08.310Z,92.03
2019-03-01T03:18:08.401Z,92.10
2019-03-01T03:19:08.291Z,91.78
2019-03-01T03:20:08.383Z,91.68
2019-03-01T03:21:08.272Z,91.47
2019-03-01T03:22:08.272Z,91.38
2019-03-01T03:23:08.243Z,91.58
2019-03-01T03:24:08.303Z,90.81
2019-03-01T03:25:08.234Z,90.81
2019-03-01T03:26:08.243Z,90.72
2019-03-01T03:27:08.204Z,91.27
2019-03-01T03:28:08.275Z,91.33
2019-03-01T03:29:08.177Z,91.02
2019-03-01T03:30:08.256Z,91.53
2019-03-01T03:31:08.161Z,91.64
2019-03-01T03:32:08.157Z,90.96
2019-03-01T03:33:08.160Z,91.33
2019-03-01T03:34:08.189Z,92.10
2019-03-01T03:35:08.145Z,92.16
2019-03-01T03:36:08.137Z,92.05
2019-03-01T03:37:08.089Z,91.64
2019-03-01T03:38:08.079Z,92.05
2019-03-01T03:39:08.131Z,91.95
2019-03-01T03:40:08.081Z,92.16
2019-03-01T03:41:08.062Z,91.85
2019-03-01T03:42:08.041Z,91.74
2019-03-01T03:43:08.032Z,92.05
2019-03-01T03:44:08.003Z,91.74
2019-03-01T03:45:08.083Z,91.99
2019-03-01T03:46:07.994Z,92.30
2019-03-01T03:47:08.084Z,92.30
2019-03-01T03:48:09.065Z,93.23
2019-03-01T03:49:07.966Z,93.64
2019-03-01T03:50:08.025Z,94.15
2019-03-01T03:51:07.936Z,94.92
2019-03-01T03:52:08.936Z,94.71
2019-03-01T03:53:07.933Z,94.71
2019-03-01T03:54:07.947Z,94.71
2019-03-01T03:55:07.898Z,94.92
2019-03-01T03:56:07.988Z,95.02
2019-03-01T03:57:07.870Z,94.92
2019-03-01T03:58:07.917Z,94.51
2019-03-01T03:59:07.849Z,95.33
2019-03-01T04:00:07.911Z,95.23
2019-03-01T04:01:07.827Z,95.02
2019-03-01T04:02:07.894Z,95.12
2019-03-01T04:03:07.791Z,95.23
2019-03-01T04:04:07.786Z,94.81
2019-03-01T04:05:07.785Z,94.92
2019-03-01T04:06:07.861Z,95.12
2019-03-01T04:07:07.741Z,95.23
2019-03-01T04:08:07.802Z,95.02
2019-03-01T04:09:07.763Z,95.23
2019-03-01T04:10:07.724Z,95.02
2019-03-01T04:11:07.805Z,95.53
2019-03-01T04:12:07.688Z,96.05
2019-03-01T04:13:07.768Z,95.84
2019-03-01T04:14:07.707Z,96.25
2019-03-01T04:15:07.716Z,96.67
2019-03-01T04:16:07.648Z,96.88
2019-03-01T04:17:07.743Z,96.97
2019-03-01T04:18:07.618Z,96.67
2019-03-01T04:19:07.646Z,95.64
2019-03-01T04:20:07.620Z,95.95
2019-03-01T04:21:07.679Z,95.64
2019-03-01T04:22:07.579Z,96.36
2019-03-01T04:23:07.633Z,95.27
2019-03-01T04:24:07.559Z,95.68
2019-03-01T04:25:07.560Z,95.17
2019-03-01T04:26:07.532Z,95.27
2019-03-01T04:27:07.594Z,94.96
2019-03-01T04:28:07.512Z,94.96
2019-03-01T04:29:07.540Z,95.27
2019-03-01T04:30:07.508Z,94.96
2019-03-01T04:31:07.563Z,95.37
2019-03-01T04:32:07.474Z,95.37
2019-03-01T04:33:08.525Z,95.37
2019-03-01T04:34:07.443Z,95.58
2019-03-01T04:35:08.508Z,95.58
2019-03-01T04:36:07.428Z,95.37
2019-03-01T04:37:07.478Z,96.50
2019-03-01T04:38:07.405Z,96.09
2019-03-01T04:39:07.408Z,96.81
2019-03-01T04:40:07.398Z,96.50
2019-03-01T04:41:07.367Z,96.61
2019-03-01T04:42:07.415Z,96.61
2019-03-01T04:43:07.349Z,96.50
2019-03-01T04:44:07.349Z,96.71
2019-03-01T04:45:07.339Z,97.02
2019-03-01T04:46:07.309Z,96.92
2019-03-01T04:47:07.300Z,96.92
2019-03-01T04:48:07.320Z,97.02
2019-03-01T04:49:07.280Z,96.71
2019-03-01T04:50:07.292Z,96.71
2019-03-01T04:51:07.241Z,96.71
2019-03-01T04:52:07.292Z,96.61
2019-03-01T04:53:07.222Z,96.81
2019-03-01T04:54:07.328Z,96.50
2019-03-01T04:55:07.233Z,96.71
2019-03-01T04:56:07.263Z,96.50
2019-03-01T04:57:07.174Z,96.36
2019-03-01T04:58:07.194Z,95.74
2019-03-01T04:59:07.154Z,95.74
2019-03-01T05:00:08.256Z,96.05
2019-03-01T05:01:07.145Z,96.15
2019-03-01T05:02:07.122Z,95.95
2019-03-01T05:03:07.142Z,96.36
2019-03-01T05:04:07.095Z,95.84
2019-03-01T05:05:07.167Z,95.23
2019-03-01T05:06:07.087Z,95.53
2019-03-01T05:07:07.060Z,95.33
2019-03-01T05:08:07.050Z,95.12
2019-03-01T05:09:07.140Z,94.92
2019-03-01T05:10:07.063Z,95.33
2019-03-01T05:11:07.131Z,95.12
2019-03-01T05:12:07.001Z,94.71
2019-03-01T05:13:07.011Z,94.71
2019-03-01T05:14:06.981Z,94.81
2019-03-01T05:15:07.053Z,94.81
2019-03-01T05:16:06.975Z,94.71
2019-03-01T05:17:08.013Z,94.92
2019-03-01T05:18:06.944Z,94.71
2019-03-01T05:19:07.034Z,94.92
2019-03-01T05:20:06.939Z,94.09
2019-03-01T05:21:07.004Z,94.26
2019-03-01T05:22:06.913Z,93.88
2019-03-01T05:23:06.896Z,94.30
2019-03-01T05:24:06.968Z,94.09
2019-03-01T05:25:06.868Z,94.09
2019-03-01T05:26:06.963Z,93.88
2019-03-01T05:27:06.847Z,93.79
2019-03-01T05:28:06.840Z,94.09
2019-03-01T05:29:06.908Z,93.68
2019-03-01T05:30:06.831Z,92.96
2019-03-01T05:31:06.890Z,93.06
2019-03-01T05:32:06.789Z,92.65
2019-03-01T05:33:06.780Z,92.82
2019-03-01T05:34:06.771Z,93.37
2019-03-01T05:35:06.811Z,92.76
2019-03-01T05:36:06.764Z,92.44
2019-03-01T05:37:06.751Z,92.65
2019-03-01T05:38:06.722Z,92.96
2019-03-01T05:39:06.782Z,92.50
2019-03-01T05:40:06.687Z,92.65
2019-03-01T05:41:07.783Z,93.33
2019-03-01T05:42:06.664Z,93.06
2019-03-01T05:43:06.754Z,92.92
2019-03-01T05:44:06.644Z,92.20
2019-03-01T05:45:06.695Z,91.78
2019-03-01T05:46:06.637Z,92.55
2019-03-01T05:47:07.646Z,92.10
2019-03-01T05:48:06.596Z,92.24
2019-03-01T05:49:06.587Z,92.55
2019-03-01T05:50:07.129Z,93.06
2019-03-01T05:51:06.638Z,92.86
2019-03-01T05:52:06.551Z,92.92
2019-03-01T05:53:06.638Z,92.34
2019-03-01T05:54:06.529Z,92.55
2019-03-01T05:55:06.569Z,92.65
2019-03-01T05:56:06.523Z,92.76
2019-03-01T05:57:06.501Z,92.55
2019-03-01T05:58:16.080Z,93.16
2019-03-01T05:59:07.471Z,93.16
2019-03-01T06:00:06.462Z,92.86
2019-03-01T06:01:06.523Z,93.27
2019-03-01T06:02:06.446Z,93.27
2019-03-01T06:03:06.513Z,92.55
2019-03-01T06:04:06.433Z,93.16
2019-03-01T06:05:06.407Z,93.31
2019-03-01T06:06:06.474Z,93.11
2019-03-01T06:07:06.388Z,92.90
2019-03-01T06:08:06.455Z,92.59
2019-03-01T06:09:06.356Z,93.16
2019-03-01T06:10:06.346Z,93.27
2019-03-01T06:11:06.356Z,93.27
2019-03-01T06:12:06.437Z,93.31
2019-03-01T06:13:06.317Z,93.31
2019-03-01T06:14:06.369Z,93.48
2019-03-01T06:15:06.299Z,93.27
2019-03-01T06:16:06.348Z,93.27
2019-03-01T06:17:06.281Z,93.27
2019-03-01T06:18:06.341Z,93.16
2019-03-01T06:19:06.250Z,93.27
2019-03-01T06:20:06.270Z,93.16
2019-03-01T06:21:06.241Z,93.99
2019-03-01T06:22:06.311Z,93.62
2019-03-01T06:23:06.212Z,93.93
2019-03-01T06:24:06.242Z,94.45
2019-03-01T06:25:06.185Z,94.24
2019-03-01T06:26:06.183Z,94.34
2019-03-01T06:27:06.154Z,94.34
2019-03-01T06:28:06.215Z,94.76
2019-03-01T06:29:06.155Z,95.06
2019-03-01T06:30:07.174Z,94.76
2019-03-01T06:31:06.114Z,94.03
2019-03-01T06:32:06.186Z,94.03
2019-03-01T06:33:06.087Z,94.03
2019-03-01T06:34:06.127Z,93.58
2019-03-01T06:35:06.058Z,93.99
2019-03-01T06:36:07.129Z,94.34
2019-03-01T06:37:06.178Z,93.68
2019-03-01T06:38:06.101Z,93.88
2019-03-01T06:39:06.019Z,93.99
2019-03-01T06:40:06.029Z,94.09
2019-03-01T06:41:06.001Z,93.99
2019-03-01T06:42:05.960Z,94.13
2019-03-01T06:43:05.975Z,94.13
2019-03-01T06:44:06.000Z,94.13
2019-03-01T06:45:05.952Z,94.13
2019-03-01T06:46:05.972Z,94.24
2019-03-01T06:47:05.924Z,95.06
2019-03-01T06:48:05.973Z,94.96
2019-03-01T06:49:05.903Z,94.85
2019-03-01T06:50:05.912Z,94.85
2019-03-01T06:51:05.894Z,95.17
2019-03-01T06:52:06.965Z,94.55
2019-03-01T06:53:05.854Z,94.96
2019-03-01T06:54:05.876Z,94.96
2019-03-01T06:55:05.836Z,94.85
2019-03-01T06:56:06.851Z,94.85
2019-03-01T06:57:05.807Z,94.65
2019-03-01T06:58:05.817Z,94.85
2019-03-01T06:59:05.809Z,94.71
2019-03-01T07:00:05.768Z,93.99
2019-03-01T07:01:05.918Z,93.79
2019-03-01T07:02:05.796Z,93.95
2019-03-01T07:03:05.789Z,93.54
2019-03-01T07:04:05.770Z,93.64
2019-03-01T07:05:06.774Z,93.68
2019-03-01T07:06:05.870Z,93.64
2019-03-01T07:07:05.821Z,93.33
2019-03-01T07:08:05.692Z,93.23
2019-03-01T07:09:05.703Z,93.95
2019-03-01T07:10:05.673Z,93.29
2019-03-01T07:11:05.743Z,92.97
2019-03-01T07:12:05.664Z,92.50
2019-03-01T07:13:05.674Z,92.50
2019-03-01T07:14:05.627Z,93.02
2019-03-01T07:15:07.163Z,93.12
2019-03-01T07:16:05.595Z,93.08
2019-03-01T07:17:05.698Z,92.97
2019-03-01T07:18:05.586Z,92.82
2019-03-01T07:19:05.555Z,93.02
2019-03-01T07:20:08.605Z,93.29
2019-03-01T07:21:05.538Z,93.08
2019-03-01T07:22:05.627Z,93.23
2019-03-01T07:23:05.530Z,92.87
2019-03-01T07:24:05.640Z,92.67
2019-03-01T07:25:05.489Z,92.46
2019-03-01T07:26:05.560Z,92.83
2019-03-01T07:27:05.473Z,91.39
2019-03-01T07:28:06.513Z,91.60
2019-03-01T07:29:05.561Z,91.14
2019-03-01T07:30:05.432Z,91.66
2019-03-01T07:31:07.192Z,91.20
2019-03-01T07:32:05.434Z,90.69
2019-03-01T07:33:05.443Z,89.97
2019-03-01T07:34:05.395Z,89.76
2019-03-01T07:35:05.464Z,89.56
2019-03-01T07:36:05.354Z,88.53
2019-03-01T07:37:06.474Z,85.97
2019-03-01T07:38:05.345Z,85.55
2019-03-01T07:39:05.440Z,85.72
2019-03-01T07:40:05.326Z,86.13
2019-03-01T07:41:05.377Z,86.75
2019-03-01T07:42:05.328Z,87.22
2019-03-01T07:43:05.317Z,87.53
2019-03-01T07:44:05.278Z,87.02
2019-03-01T07:45:05.270Z,86.50
2019-03-01T07:46:05.319Z,85.47
2019-03-01T07:47:05.241Z,86.91
2019-03-01T07:48:05.250Z,87.12
2019-03-01T07:49:05.220Z,84.96
2019-03-01T07:50:05.220Z,83.94
2019-03-01T07:51:05.212Z,83.63
2019-03-01T07:52:05.909Z,82.40
2019-03-01T07:53:05.183Z,83.42
2019-03-01T07:54:05.263Z,84.34
2019-03-01T07:55:05.163Z,84.55
2019-03-01T07:56:05.487Z,86.09
2019-03-01T07:57:05.213Z,86.13
2019-03-01T07:58:05.124Z,86.81
2019-03-01T07:59:05.205Z,85.58
2019-03-01T08:00:05.105Z,85.93
2019-03-01T08:01:05.095Z,85.21
2019-03-01T08:02:05.233Z,84.80
2019-03-01T08:03:05.071Z,84.80
2019-03-01T08:04:05.147Z,85.31
2019-03-01T08:05:05.173Z,85.72
2019-03-01T08:06:05.028Z,85.93
2019-03-01T08:07:05.021Z,85.25
2019-03-01T08:08:06.033Z,85.25
2019-03-01T08:09:04.999Z,85.14
2019-03-01T08:10:05.050Z,85.46
2019-03-01T08:11:04.971Z,85.35
2019-03-01T08:12:07.369Z,85.46
2019-03-01T08:13:05.548Z,87.34
2019-03-01T08:14:05.031Z,87.61
2019-03-01T08:15:08.205Z,87.71
2019-03-01T08:16:04.963Z,87.51
2019-03-01T08:17:04.915Z,88.33
2019-03-01T08:18:08.445Z,88.95
2019-03-01T08:19:04.887Z,88.78
2019-03-01T08:20:04.925Z,88.23
2019-03-01T08:21:06.377Z,86.79
2019-03-01T08:22:05.857Z,86.79
2019-03-01T08:23:04.936Z,87.13
2019-03-01T08:24:07.602Z,87.51
2019-03-01T08:25:05.890Z,87.10
2019-03-01T08:26:04.808Z,87.98
2019-03-01T08:27:09.813Z,87.92
2019-03-01T08:28:05.781Z,87.98
2019-03-01T08:29:04.838Z,86.95
2019-03-01T08:30:06.862Z,86.24
2019-03-01T08:31:05.799Z,85.66
2019-03-01T08:32:04.750Z,86.65
2019-03-01T08:33:06.789Z,87.26
2019-03-01T08:34:04.783Z,87.16
2019-03-01T08:35:06.023Z,86.58
2019-03-01T08:36:05.740Z,86.85
2019-03-01T08:37:04.691Z,86.13
2019-03-01T08:38:04.662Z,85.52
2019-03-01T08:39:05.775Z,85.41
2019-03-01T08:40:05.704Z,85.21
2019-03-01T08:41:04.637Z,85.17
2019-03-01T08:42:04.674Z,85.17
2019-03-01T08:43:04.614Z,85.38
2019-03-01T08:44:04.666Z,83.18
2019-03-01T08:45:04.597Z,83.18
2019-03-01T08:46:05.467Z,83.49
2019-03-01T08:47:04.590Z,83.45
2019-03-01T08:48:04.637Z,83.25
2019-03-01T08:49:06.733Z,83.34
2019-03-01T08:50:05.602Z,82.32
2019-03-01T08:51:04.528Z,81.71
2019-03-01T08:52:04.678Z,81.26
2019-03-01T08:53:04.500Z,82.01
2019-03-01T08:54:04.490Z,82.22
2019-03-01T08:55:04.642Z,81.29
2019-03-01T08:56:05.502Z,81.71
2019-03-01T08:57:04.479Z,81.71
2019-03-01T08:58:06.859Z,81.40
2019-03-01T08:59:04.422Z,80.68
2019-03-01T09:00:04.456Z,80.88
2019-03-01T09:01:08.368Z,82.32
2019-03-01T09:02:05.453Z,81.64
2019-03-01T09:03:04.384Z,82.12
2019-03-01T09:04:04.748Z,82.12
2019-03-01T09:05:05.271Z,81.50
2019-03-01T09:06:04.465Z,81.60
2019-03-01T09:07:04.388Z,81.57
2019-03-01T09:08:04.396Z,80.33
2019-03-01T09:09:04.296Z,80.64
2019-03-01T09:10:04.283Z,80.33
2019-03-01T09:11:05.548Z,75.10
2019-03-01T09:12:04.378Z,72.69
2019-03-01T09:13:04.279Z,71.12
2019-03-01T09:14:04.309Z,72.72
2019-03-01T09:15:04.621Z,74.38
2019-03-01T09:16:04.341Z,75.51
2019-03-01T09:17:04.221Z,77.12
2019-03-01T09:18:04.321Z,77.22
2019-03-01T09:19:04.203Z,77.22
2019-03-01T09:20:04.213Z,77.39
2019-03-01T09:21:05.924Z,76.67
2019-03-01T09:22:04.242Z,76.61
2019-03-01T09:23:16.397Z,78.49
2019-03-01T09:24:05.147Z,79.71
2019-03-01T09:25:07.600Z,77.63
2019-03-01T09:26:04.116Z,78.20
2019-03-01T09:27:04.205Z,76.74
2019-03-01T09:28:04.096Z,76.40
2019-03-01T09:29:04.116Z,76.40
2019-03-01T09:30:04.076Z,77.87
2019-03-01T09:31:04.061Z,74.46
2019-03-01T09:32:04.047Z,74.59
2019-03-01T09:33:04.519Z,72.62
2019-03-01T09:34:06.071Z,70.57
2019-03-01T09:35:04.320Z,71.56
2019-03-01T09:36:04.000Z,72.69
2019-03-01T09:37:04.000Z,72.62
2019-03-01T09:38:04.526Z,73.06
2019-03-01T09:39:03.981Z,73.47
2019-03-01T09:40:05.786Z,70.85
2019-03-01T09:41:04.588Z,69.56
2019-03-01T09:42:06.254Z,69.93
2019-03-01T09:43:04.023Z,71.19
2019-03-01T09:44:03.923Z,72.45
2019-03-01T09:45:04.005Z,74.15
2019-03-01T09:46:03.903Z,72.65
2019-03-01T09:47:03.896Z,72.17
2019-03-01T09:48:05.104Z,72.00
2019-03-01T09:49:03.878Z,73.68
2019-03-01T09:50:03.847Z,75.00
2019-03-01T09:51:03.928Z,75.31
2019-03-01T09:52:03.817Z,76.74
2019-03-01T09:53:03.828Z,75.41
2019-03-01T09:54:06.452Z,75.27
2019-03-01T09:55:04.799Z,73.98
2019-03-01T09:56:03.872Z,74.80
2019-03-01T09:57:03.830Z,75.14
2019-03-01T09:58:03.770Z,76.09
2019-03-01T09:59:04.794Z,75.07
2019-03-01T10:00:03.731Z,75.48
2019-03-01T10:01:03.801Z,76.50
2019-03-01T10:02:03.713Z,76.40
2019-03-01T10:03:03.732Z,76.43
2019-03-01T10:04:03.695Z,76.54
2019-03-01T10:05:05.713Z,76.43
2019-03-01T10:06:03.663Z,76.43
2019-03-01T10:07:03.704Z,76.13
2019-03-01T10:08:03.654Z,76.64
2019-03-01T10:09:03.625Z,77.05
2019-03-01T10:10:03.707Z,76.43
2019-03-01T10:11:03.606Z,76.64
2019-03-01T10:12:03.647Z,76.43
2019-03-01T10:13:03.579Z,76.61
2019-03-01T10:14:03.587Z,77.36
2019-03-01T10:15:03.551Z,77.83
2019-03-01T10:16:03.618Z,76.30
2019-03-01T10:17:03.540Z,76.20
2019-03-01T10:18:03.550Z,77.26
2019-03-01T10:19:03.530Z,76.75
2019-03-01T10:20:03.492Z,76.43
2019-03-01T10:21:03.551Z,77.39
2019-03-01T10:22:03.481Z,77.50
2019-03-01T10:23:03.494Z,77.29
2019-03-01T10:24:03.472Z,77.09
2019-03-01T10:25:03.437Z,77.19
2019-03-01T10:26:03.425Z,77.50
2019-03-01T10:27:03.464Z,77.29
2019-03-01T10:28:03.424Z,77.09
2019-03-01T10:29:03.449Z,76.75
2019-03-01T10:30:03.386Z,76.43
2019-03-01T10:31:03.436Z,75.72
2019-03-01T10:32:03.386Z,75.42
2019-03-01T10:33:03.378Z,74.69
2019-03-01T10:34:03.360Z,75.21
2019-03-01T10:35:03.408Z,75.72
2019-03-01T10:36:03.319Z,74.60
2019-03-01T10:37:03.348Z,75.10
2019-03-01T10:38:03.310Z,74.69
2019-03-01T10:39:03.330Z,73.88
2019-03-01T10:40:03.291Z,74.49
2019-03-01T10:41:03.271Z,74.73
2019-03-01T10:42:03.264Z,74.80
2019-03-01T10:43:03.252Z,75.31
2019-03-01T10:44:03.254Z,73.36
2019-03-01T10:45:03.293Z,74.02
2019-03-01T10:46:03.184Z,74.69
2019-03-01T10:47:03.195Z,74.69
2019-03-01T10:48:03.187Z,73.57
2019-03-01T10:49:03.215Z,74.49
2019-03-01T10:50:03.169Z,73.88
2019-03-01T10:51:03.196Z,74.49
2019-03-01T10:52:03.166Z,74.69
2019-03-01T10:53:03.137Z,74.19
2019-03-01T10:54:03.147Z,74.69
2019-03-01T10:55:03.106Z,74.39
2019-03-01T10:56:03.128Z,73.88
2019-03-01T10:57:03.090Z,73.78
2019-03-01T10:58:03.080Z,75.31
2019-03-01T10:59:04.119Z,75.31
2019-03-01T11:00:03.050Z,75.52
2019-03-01T11:01:03.081Z,75.01
2019-03-01T11:02:03.031Z,73.57
2019-03-01T11:03:03.012Z,73.20
2019-03-01T11:04:03.025Z,72.99
2019-03-01T11:05:04.073Z,73.30
2019-03-01T11:06:02.983Z,73.40
2019-03-01T11:07:02.983Z,73.91
2019-03-01T11:08:02.957Z,73.91
2019-03-01T11:09:03.064Z,72.99
2019-03-01T11:10:02.935Z,74.02
2019-03-01T11:11:02.965Z,74.11
2019-03-01T11:12:02.916Z,73.61
2019-03-01T11:13:02.996Z,74.32
2019-03-01T11:14:02.908Z,73.40
2019-03-01T11:15:02.926Z,74.19
2019-03-01T11:16:02.871Z,73.78
2019-03-01T11:17:03.887Z,73.44
2019-03-01T11:18:02.839Z,72.62
2019-03-01T11:19:02.949Z,73.23
2019-03-01T11:20:02.821Z,71.66
2019-03-01T11:21:02.849Z,70.84
2019-03-01T11:22:02.802Z,70.71
2019-03-01T11:23:03.891Z,71.29
2019-03-01T11:24:02.791Z,69.24
2019-03-01T11:25:02.751Z,68.33
2019-03-01T11:26:02.762Z,68.23
2019-03-01T11:27:12.459Z,68.80
2019-03-01T11:28:03.725Z,69.15
2019-03-01T11:29:02.828Z,68.53
2019-03-01T11:30:02.704Z,70.57
2019-03-01T11:31:02.826Z,69.76
2019-03-01T11:32:02.697Z,70.37
2019-03-01T11:33:02.768Z,70.47
2019-03-01T11:34:02.687Z,70.00
2019-03-01T11:35:02.697Z,69.69
2019-03-01T11:36:02.647Z,70.51
2019-03-01T11:37:02.730Z,68.87
2019-03-01T11:38:02.628Z,70.81
2019-03-01T11:39:02.718Z,70.10
2019-03-01T11:40:02.601Z,70.61
2019-03-01T11:41:02.579Z,70.71
2019-03-01T11:42:02.661Z,69.38
2019-03-01T11:43:02.561Z,70.06
2019-03-01T11:44:02.651Z,69.04
2019-03-01T11:45:02.552Z,69.04
2019-03-01T11:46:02.522Z,69.69
2019-03-01T11:47:02.612Z,69.79
2019-03-01T11:48:02.514Z,69.69
2019-03-01T11:49:03.613Z,68.26
2019-03-01T11:50:02.493Z,69.07
2019-03-01T11:51:02.601Z,69.69
2019-03-01T11:52:02.465Z,68.87
2019-03-01T11:53:02.515Z,69.18
2019-03-01T11:54:02.456Z,68.57
2019-03-01T11:55:02.506Z,69.28
2019-03-01T11:56:02.408Z,68.77
2019-03-01T11:57:02.418Z,68.05
2019-03-01T11:58:02.398Z,69.59
2019-03-01T11:59:02.418Z,67.95
2019-03-01T12:00:02.379Z,67.95
2019-03-01T12:01:02.461Z,68.66
2019-03-01T12:02:02.361Z,69.15
2019-03-01T12:03:02.390Z,69.45
2019-03-01T12:04:02.323Z,69.56
2019-03-01T12:05:02.372Z,69.65
2019-03-01T12:06:02.301Z,68.33
2019-03-01T12:07:02.406Z,68.23
2019-03-01T12:08:02.472Z,68.30
2019-03-01T12:09:02.302Z,67.41
2019-03-01T12:10:02.412Z,67.38
2019-03-01T12:11:02.365Z,68.33
2019-03-01T12:12:02.236Z,68.02
2019-03-01T12:13:02.227Z,68.53
2019-03-01T12:14:02.235Z,68.36
2019-03-01T12:15:02.217Z,68.74
2019-03-01T12:16:02.277Z,67.82
2019-03-01T12:17:02.176Z,68.87
2019-03-01T12:18:02.167Z,68.87
2019-03-01T12:19:02.168Z,69.48
2019-03-01T12:20:02.191Z,69.79
2019-03-01T12:21:02.128Z,71.73
2019-03-01T12:22:02.181Z,71.63
2019-03-01T12:23:02.109Z,73.30
2019-03-01T12:24:02.090Z,72.79
2019-03-01T12:25:02.132Z,73.40
2019-03-01T12:26:02.090Z,74.63
2019-03-01T12:27:02.122Z,73.81
2019-03-01T12:28:02.051Z,74.02
2019-03-01T12:29:02.042Z,73.77
2019-03-01T12:30:02.075Z,71.25
2019-03-01T12:31:02.151Z,72.28
2019-03-01T12:32:02.064Z,73.30
2019-03-01T12:33:01.999Z,72.79
2019-03-01T12:34:01.995Z,72.79
2019-03-01T12:35:01.998Z,72.58
2019-03-01T12:36:02.046Z,72.38
2019-03-01T12:37:01.956Z,72.89
2019-03-01T12:38:01.977Z,72.86
2019-03-01T12:39:01.937Z,73.36
2019-03-01T12:40:01.938Z,72.65
2019-03-01T12:41:01.919Z,73.36
2019-03-01T12:42:01.959Z,72.82
2019-03-01T12:43:01.889Z,72.21
2019-03-01T12:44:01.987Z,70.71
2019-03-01T12:45:22.934Z,71.70
2019-03-01T12:46:01.860Z,71.50
2019-03-01T12:47:01.831Z,71.29
2019-03-01T12:48:01.862Z,70.68
2019-03-01T12:49:01.823Z,70.06
2019-03-01T12:50:01.843Z,70.81
2019-03-01T12:51:01.864Z,71.29
2019-03-01T12:52:01.795Z,71.09